• Join FlightAware (Why Join?)
  • Login
  • US Flag 
08:40AM EST


 

Airport Tracker/Info


-or-


 

Live Flight TrackerFlight Track Log ✈ SKW6492 ✈ 18-Oct-2013 ✈ KDEN - KCOD

Flight Track Log - Related Links

Times and Time Zones

All times are in EDT time to prevent confusion due to time zone crossing. See the SKW6492 flight status page for this flight to view local times or setup timezone preferences in your user account.

Time Position Orientation Groundspeed Altitude Reporting Facility
EDT Latitude Longitude Course Direction KTS MPH feet Rate Location/Type
09:54PM 39.8500 -104.7500 13° North 170 196 6,200  Level Denver TRACON
09:55PM 39.8667 -104.8167 288° West 201 231 7,900 1,860 Climbing Denver TRACON
09:56PM 39.8889 -104.8578 305° West 224 258 9,400 2,580 Climbing Denver Center
09:57PM 40.1888 -104.9541 346° North  Level Estimated
09:57PM 39.9386 -104.9206 316° Northwest 258 297 12,400  Level Denver Center
09:58PM 40.2705 -105.0248 348° North  Level Estimated
09:58PM 40.0131 -104.8803 23° Northeast 297 342 14,700  Level Denver Center
09:59PM 40.3660 -104.9964 13° North  Level FlightAware Approximate
09:59PM 40.0925 -104.8131 33° Northeast 313 360 16,900  Level Denver Center
10:00PM 40.1781 -104.8000 North 322 371 17,900 1,140 Climbing Denver Center
10:01PM 40.2747 -104.8078 356° North 346 398 19,300 1,740 Climbing Denver Center
10:02PM 40.3761 -104.8172 356° North 339 390 21,600 1,920 Climbing Denver Center
10:03PM 40.4683 -104.8239 357° North 333 383 23,300 1,140 Climbing Denver Center
10:04PM 40.5706 -104.8350 355° North 345 397 24,000 480 Climbing Denver Center
10:05PM 40.6578 -104.8417 357° North 359 413 24,400 600 Climbing Denver Center
10:06PM 40.7822 -104.8508 357° North 368 423 25,300 840 Climbing Denver Center
10:07PM 40.8811 -104.8961 341° North 373 429 26,200 720 Climbing Denver Center
10:08PM 40.9789 -104.9450 339° North 376 433 26,900 720 Climbing Denver Center
10:09PM 41.0858 -104.9978 340° North 376 433 27,800 660 Climbing Denver Center
10:10PM 41.1803 -105.0431 340° North 375 432 28,300 480 Climbing Denver Center
10:11PM 41.2758 -105.0903 340° North 382 440 28,800 480 Climbing Denver Center
10:12PM 41.3883 -105.1492 339° North 387 445 29,400 480 Climbing Denver Center
10:13PM 41.4861 -105.1956 340° North 388 447 29,800 480 Climbing Denver Center
10:14PM 41.5944 -105.2697 333° Northwest 399 459 30,400 480 Climbing Denver Center
10:15PM 41.6767 -105.3586 321° Northwest 397 457 30,900 480 Climbing Denver Center
10:16PM 41.7708 -105.4617 321° Northwest 393 452 31,400 480 Climbing Denver Center
10:17PM 41.8525 -105.5472 322° Northwest 390 449 31,900 240 Climbing Denver Center
10:18PM 41.9328 -105.6347 321° Northwest 389 448 32,000  Climbing Denver Center
10:19PM 42.0283 -105.7400 321° Northwest 394 453 32,000  Level Denver Center
10:20PM 42.1086 -105.8289 321° Northwest 391 450 32,000  Level Denver Center
10:21PM 42.2025 -105.9328 321° Northwest 391 450 32,000  Level Denver Center
10:22PM 42.2842 -106.0225 321° Northwest 393 452 32,000  Level Denver Center
10:23PM 42.3781 -106.1283 320° Northwest 393 452 32,000  Level Denver Center
10:24PM 42.4592 -106.2197 320° Northwest 394 453 32,000  Level Denver Center
10:26PM 42.5403 -106.3089 321° Northwest 393 452 32,000  Level Denver Center
10:27PM 42.6353 -106.4161 320° Northwest 396 456 32,000  Level Denver Center
10:28PM 42.7167 -106.5061 321° Northwest 396 456 32,000  Level Denver Center
10:29PM 42.8128 -106.6139 321° Northwest 399 459 32,000  Level Denver Center
10:30PM 42.8956 -106.7064 321° Northwest 401 461 32,000  Level Denver Center
10:31PM 42.9917 -106.8156 320° Northwest 402 463 32,000  Level Denver Center
10:31PM 43.0469 -106.8797 320° Northwest 405 466 32,000  Level Salt Lake Center
10:32PM 43.1281 -106.9717 320° Northwest 405 466 32,000  Level Salt Lake Center
10:33PM 43.2314 -107.0925 320° Northwest 408 470 32,000  Level Salt Lake Center
10:34PM 43.3194 -107.1897 321° Northwest 407 468 32,000  Level Salt Lake Center
10:35PM 43.4069 -107.2889 321° Northwest 407 468 32,000  Level Salt Lake Center
10:37PM 43.4936 -107.3906 320° Northwest 410 472 32,000 -180 Level Salt Lake Center
10:38PM 43.5819 -107.4914 320° Northwest 412 474 31,700 -1,320 Descending Salt Lake Center
10:39PM 43.6672 -107.5922 319° Northwest 406 467 29,400 -2,160 Descending Salt Lake Center
10:40PM 43.7522 -107.6900 320° Northwest 398 458 27,300 -2,040 Descending Salt Lake Center
10:41PM 43.8358 -107.7883 320° Northwest 395 455 25,200 -2,220 Descending Salt Lake Center
10:42PM 43.9342 -107.9036 320° Northwest 387 445 22,800 -2,160 Descending Salt Lake Center
10:43PM 44.0139 -107.9981 320° Northwest 379 436 20,800 -1,980 Descending Salt Lake Center
10:44PM 44.0917 -108.0906 320° Northwest 372 428 18,800 -1,920 Descending Salt Lake Center
10:45PM 44.1669 -108.1828 319° Northwest 367 422 16,900 -1,860 Descending Salt Lake Center
10:46PM 44.2392 -108.2689 320° Northwest 357 411 15,000 -1,860 Descending Salt Lake Center
10:47PM 44.3075 -108.3492 320° Northwest 342 394 13,200 -1,680 Descending Salt Lake Center
10:48PM 44.3742 -108.4289 319° Northwest 328 377 11,600 -1,440 Descending Salt Lake Center
10:49PM 44.4342 -108.4997 320° Northwest 309 356 10,300 -1,320 Descending Salt Lake Center
10:50PM 44.4875 -108.5636 319° Northwest 279 321 9,000 -660 Descending Salt Lake Center
10:51PM 44.5522 -108.6417 319° Northwest 263 303 9,000 -180 Level Salt Lake Center
10:52PM 44.5981 -108.6956 320° Northwest 243 280 8,700 -540 Descending Salt Lake Center
10:53PM 44.6414 -108.7403 324° Northwest 218 251 8,000 -540 Descending Salt Lake Center
10:54PM 44.6456 -108.8000 276° West 190 219 7,600 -300 Descending Salt Lake Center
10:55PM 44.6200 -108.8503 234° Southwest 171 197 7,500 -300 Descending Salt Lake Center
10:56PM 44.5961 -108.8917 231° Southwest 153 176 7,100 -600 Descending Salt Lake Center
10:57PM 44.5717 -108.9372 233° Southwest 147 169 6,300 -480 Descending Salt Lake Center
10:58PM 44.5475 -108.9800 232° Southwest 146 168 6,200 -120 Descending Salt Lake Center